Decoded Metar for KAVX (AVALON in CA, USA) (IATA:AVX) | Meteo·Mobile Aviation Weather
aviador You're here:

KAVX Decoded Metar

AVALON in CA, USA
Report Time2019-03-19 18:51:00
UTC Time2019-03-19 19:03:13
Flight Rules vfr VFR
Wind240° at 05 kt
W.Decomp.*RWY 22: 5.0 kt HW 0.5 kt RCW
W.Rank240° ranks 3
Current wind is below 240° avg. (7.4)
Visibility9999 m
Phenomena:N/A
Clouds:N/A
Expected CloudBase > 1,600 ft AGL from Temp-Dew spread
CeilingNone
Temp16°C (ISA +4)
Dew Point12°C (77% RH)
AAT14.8°C
QNH1016 hPa
Density Alt2,162 ft
Elevation1,581 ft
Report Wrong Elevation
Raw Report
KAVX 191851Z AUTO 24005KT 10SM CLR 16/12 A3000 RMK AO2 SLP147
T01560117=

Extra information for KAVX:More info

Metar Taf Metar & Taf Last 4 Metars F.Rules Stats Wind Profile Meteogram Temp Stats Airport Information Weather charts Add Link Nearby VenuesMetar ALERT Operation Metar Decoded Social comments

AIRNAV info for KAVX